Time;durP1;ratioP1;P1;durP2;ratioP2;P2;SDS_P1;SDS_P2;PMS_P1;PMS_P2;Temp;Humidity;BMP_temperature;BMP_pressure;BME280_temperature;BME280_humidity;BME280_pressure;Samples;Min_cycle;Max_cycle;Signal;HPM_P1;HPM_P2
2020/12/04 00:01:35;;;;;;;19.73;15.23;;;1.60;94.80;;;;;;5079923;28;20173;-39
2020/12/04 00:04:01;;;;;;;23.50;15.00;;;1.70;94.80;;;;;;5079315;28;20721;-38
2020/12/04 00:06:27;;;;;;;17.17;13.83;;;1.70;94.50;;;;;;5078304;28;20419;-38
2020/12/04 00:08:53;;;;;;;19.43;13.90;;;1.70;94.50;;;;;;5079175;28;20181;-39
2020/12/04 00:11:19;;;;;;;17.10;14.60;;;1.70;94.20;;;;;;5079470;28;20247;-38
2020/12/04 00:13:44;;;;;;;19.27;15.03;;;1.70;93.90;;;;;;5079414;28;20431;-38
2020/12/04 00:16:10;;;;;;;19.23;15.30;;;1.80;93.80;;;;;;5079375;28;20181;-38
2020/12/04 00:18:36;;;;;;;19.53;14.30;;;1.80;93.70;;;;;;5079130;28;20543;-38
2020/12/04 00:21:01;;;;;;;17.50;13.97;;;1.80;93.90;;;;;;5079506;28;20239;-38
2020/12/04 00:23:27;;;;;;;17.80;13.57;;;1.80;94.00;;;;;;5079094;28;20482;-38
2020/12/04 00:25:52;;;;;;;19.93;14.47;;;1.80;93.90;;;;;;5079509;28;20173;-39
2020/12/04 00:28:19;;;;;;;20.87;14.83;;;1.70;93.80;;;;;;5079024;28;20165;-38
2020/12/04 00:30:44;;;;;;;18.80;15.50;;;1.70;93.90;;;;;;5079111;28;20446;-37
2020/12/04 00:33:10;;;;;;;21.33;15.53;;;1.80;93.80;;;;;;5079240;28;20407;-38
2020/12/04 00:35:35;;;;;;;20.60;15.40;;;1.70;93.60;;;;;;5079181;28;20215;-38
2020/12/04 00:38:02;;;;;;;21.03;15.23;;;1.70;93.70;;;;;;5078615;28;20177;-38
2020/12/04 00:40:27;;;;;;;18.40;14.60;;;1.80;93.50;;;;;;5078482;28;20275;-38
2020/12/04 00:42:53;;;;;;;18.70;14.23;;;1.70;93.40;;;;;;5078100;28;20510;-37
2020/12/04 00:45:18;;;;;;;21.00;15.70;;;1.70;93.40;;;;;;5078415;28;20185;-38
2020/12/04 00:47:44;;;;;;;17.80;13.80;;;1.70;93.50;;;;;;5077919;28;20606;-39
2020/12/04 00:50:10;;;;;;;22.10;13.73;;;1.70;93.40;;;;;;5078832;28;20181;-38
2020/12/04 00:52:35;;;;;;;20.77;14.50;;;1.80;93.30;;;;;;5078361;28;20469;-38
2020/12/04 00:55:01;;;;;;;25.13;14.50;;;1.80;93.10;;;;;;5078558;28;20200;-38
2020/12/04 00:57:27;;;;;;;19.30;14.77;;;1.80;93.00;;;;;;5078600;28;20602;-38
2020/12/04 00:59:52;;;;;;;21.20;14.60;;;1.80;93.00;;;;;;5077525;28;20191;-38
2020/12/04 01:02:18;;;;;;;22.10;16.53;;;1.80;93.00;;;;;;5077988;28;20965;-39
2020/12/04 01:04:44;;;;;;;18.13;14.17;;;1.80;93.00;;;;;;5078408;28;20593;-40
2020/12/04 01:07:10;;;;;;;16.40;12.70;;;1.80;93.00;;;;;;5078220;28;20173;-38
2020/12/04 01:09:35;;;;;;;19.03;14.50;;;1.80;92.90;;;;;;5078277;28;20181;-38
2020/12/04 01:12:02;;;;;;;19.33;14.50;;;1.90;92.70;;;;;;5078205;28;20717;-38
2020/12/04 01:14:27;;;;;;;20.17;14.40;;;1.80;92.60;;;;;;5078415;28;20193;-38
2020/12/04 01:16:53;;;;;;;16.07;12.20;;;1.80;92.40;;;;;;5077561;28;20412;-37
2020/12/04 01:19:19;;;;;;;18.03;13.87;;;1.80;92.40;;;;;;5078279;28;20593;-38
2020/12/04 01:21:49;;;;;;;19.63;14.13;;;1.80;92.50;;;;;;5077594;28;20645;-38
2020/12/04 01:24:15;;;;;;;19.20;14.77;;;1.80;92.80;;;;;;5078415;28;20189;-37
2020/12/04 01:26:41;;;;;;;18.90;14.07;;;1.70;92.70;;;;;;5077128;28;20423;-36
2020/12/04 01:29:07;;;;;;;23.30;16.50;;;1.80;92.80;;;;;;5078251;28;20425;-38
2020/12/04 01:31:33;;;;;;;26.27;19.37;;;1.70;92.90;;;;;;5078639;28;20407;-38
2020/12/04 01:34:01;;;;;;;20.30;15.10;;;1.80;92.80;;;;;;5079871;28;20666;-38
2020/12/04 01:36:28;;;;;;;22.33;16.53;;;1.80;92.70;;;;;;5079385;28;20170;-38
2020/12/04 01:38:54;;;;;;;19.73;15.30;;;1.90;92.60;;;;;;5077901;28;20478;-39
2020/12/04 01:41:19;;;;;;;19.50;14.70;;;1.90;92.60;;;;;;5077944;28;20809;-38
2020/12/04 01:43:45;;;;;;;18.57;14.80;;;1.90;92.40;;;;;;5077553;28;20212;-37
2020/12/04 01:46:13;;;;;;;17.60;13.40;;;1.90;92.40;;;;;;5076406;28;20531;-38
2020/12/04 01:48:38;;;;;;;15.60;12.20;;;1.90;92.50;;;;;;5078003;28;20478;-40
2020/12/04 01:51:04;;;;;;;17.30;14.37;;;1.90;92.30;;;;;;5077866;28;20399;-38
2020/12/04 01:53:29;;;;;;;17.60;12.50;;;2.00;92.10;;;;;;5077318;28;20237;-40
2020/12/04 01:55:55;;;;;;;17.93;13.30;;;2.00;91.90;;;;;;5076538;28;20173;-38
2020/12/04 01:58:21;;;;;;;14.60;11.70;;;2.00;91.90;;;;;;5077574;28;20414;-37
2020/12/04 02:00:46;;;;;;;14.43;11.53;;;2.00;91.80;;;;;;5077204;28;20422;-40
2020/12/04 02:03:14;;;;;;;15.57;11.50;;;2.00;91.70;;;;;;5077236;28;20192;-38
2020/12/04 02:05:50;;;;;;;14.40;12.63;;;2.10;91.50;;;;;;5077368;28;20473;-38
2020/12/04 02:08:23;;;;;;;13.67;11.00;;;2.10;91.50;;;;;;5076334;28;20415;-38
2020/12/04 02:10:52;;;;;;;18.00;12.10;;;2.00;91.40;;;;;;5076936;28;20408;-39
2020/12/04 02:13:19;;;;;;;15.13;11.30;;;2.10;91.30;;;;;;5059435;28;20480;-37
2020/12/04 02:15:45;;;;;;;17.80;12.60;;;2.10;91.20;;;;;;5076028;28;20419;-38
2020/12/04 02:18:11;;;;;;;16.40;12.47;;;2.00;91.30;;;;;;5077620;28;20420;-38
2020/12/04 02:20:37;;;;;;;14.70;11.03;;;2.00;91.30;;;;;;5077396;28;20717;-37
2020/12/04 02:23:03;;;;;;;14.00;11.43;;;2.00;91.50;;;;;;5076965;28;20936;-38
2020/12/04 02:25:28;;;;;;;15.80;12.60;;;2.00;91.40;;;;;;5077268;28;20177;-37
2020/12/04 02:27:54;;;;;;;14.20;11.53;;;2.00;91.50;;;;;;5077606;28;20510;-38
2020/12/04 02:30:31;;;;;;;15.70;11.40;;;2.00;91.50;;;;;;5077157;28;20462;-39
2020/12/04 02:32:57;;;;;;;14.43;11.20;;;2.00;91.50;;;;;;5077273;28;20177;-37
2020/12/04 02:35:23;;;;;;;15.73;12.10;;;2.00;91.40;;;;;;5077030;28;20463;-38
2020/12/04 02:37:48;;;;;;;16.67;11.80;;;2.00;91.40;;;;;;5077329;28;20439;-38
2020/12/04 02:40:14;;;;;;;16.90;12.90;;;2.10;91.50;;;;;;5076762;28;20327;-37
2020/12/04 02:42:43;;;;;;;15.90;11.60;;;2.10;91.50;;;;;;5076937;28;20296;-37
2020/12/04 02:45:30;;;;;;;15.60;12.20;;;2.10;91.50;;;;;;5077519;28;20188;-37
2020/12/04 02:47:56;;;;;;;16.17;12.70;;;2.10;91.60;;;;;;5077121;28;20399;-38
2020/12/04 02:50:21;;;;;;;15.23;11.00;;;2.10;91.60;;;;;;5076919;28;20426;-37
2020/12/04 02:52:47;;;;;;;17.40;12.90;;;2.00;91.60;;;;;;5076659;28;20420;-35
2020/12/04 02:55:12;;;;;;;16.03;13.13;;;2.00;91.70;;;;;;5076760;28;20173;-36
2020/12/04 02:57:38;;;;;;;16.90;12.87;;;2.00;91.90;;;;;;5076108;28;20291;-35
2020/12/04 03:00:05;;;;;;;14.67;12.23;;;2.00;92.00;;;;;;5077110;28;20514;-36
2020/12/04 03:02:30;;;;;;;14.93;12.10;;;2.00;92.10;;;;;;5077352;28;20455;-37
2020/12/04 03:04:56;;;;;;;16.53;12.87;;;2.00;92.10;;;;;;5076927;28;20510;-37
2020/12/04 03:07:21;;;;;;;16.60;11.80;;;2.00;92.20;;;;;;5076847;28;20184;-36
2020/12/04 03:09:47;;;;;;;15.67;12.50;;;2.00;92.30;;;;;;5080797;28;20185;-36
2020/12/04 03:12:13;;;;;;;18.23;13.30;;;2.00;92.50;;;;;;5080251;28;20427;-38
2020/12/04 03:14:38;;;;;;;17.00;12.77;;;2.00;92.60;;;;;;5080084;28;20181;-37
2020/12/04 03:17:04;;;;;;;20.50;14.23;;;2.00;92.70;;;;;;5080582;28;20247;-36
2020/12/04 03:19:30;;;;;;;18.27;12.67;;;2.00;92.60;;;;;;5080472;28;20224;-37
2020/12/04 03:22:05;;;;;;;15.47;11.87;;;2.00;92.70;;;;;;5079752;28;20545;-37
2020/12/04 03:24:33;;;;;;;14.77;12.00;;;1.90;92.70;;;;;;5080435;28;20201;-37
2020/12/04 03:26:59;;;;;;;18.13;12.70;;;1.90;92.70;;;;;;5079883;28;20419;-37
2020/12/04 03:29:25;;;;;;;15.03;12.17;;;1.90;92.80;;;;;;5079896;28;20423;-37
2020/12/04 03:31:51;;;;;;;19.37;13.50;;;1.90;92.90;;;;;;5080325;28;20840;-37
2020/12/04 03:34:16;;;;;;;16.23;12.57;;;1.80;92.60;;;;;;5080036;28;20185;-36
2020/12/04 03:36:42;;;;;;;18.20;13.50;;;1.80;92.70;;;;;;5079649;28;20157;-36
2020/12/04 03:39:08;;;;;;;15.80;13.07;;;1.80;92.90;;;;;;5078935;28;20586;-36
2020/12/04 03:41:34;;;;;;;18.17;13.63;;;1.70;92.90;;;;;;5079944;28;20426;-37
2020/12/04 03:43:59;;;;;;;17.37;12.67;;;1.70;93.00;;;;;;5079726;28;20201;-37
2020/12/04 03:46:25;;;;;;;16.97;13.00;;;1.70;93.10;;;;;;5078340;28;20581;-38
2020/12/04 03:48:51;;;;;;;14.83;11.80;;;1.80;93.30;;;;;;5079936;28;20427;-37
2020/12/04 03:51:16;;;;;;;19.00;13.03;;;1.80;93.30;;;;;;5079532;28;20598;-38
2020/12/04 03:53:42;;;;;;;16.00;12.60;;;1.80;93.30;;;;;;5079544;28;20255;-37
2020/12/04 03:56:09;;;;;;;16.37;12.97;;;1.80;93.20;;;;;;5080194;28;20177;-37
2020/12/04 03:58:34;;;;;;;19.77;13.27;;;1.90;93.20;;;;;;5080352;28;20431;-37
2020/12/04 04:01:00;;;;;;;17.17;12.40;;;1.90;93.40;;;;;;5080610;28;20480;-38
2020/12/04 04:03:26;;;;;;;16.43;12.47;;;2.00;93.40;;;;;;5081504;28;20280;-38
2020/12/04 04:05:52;;;;;;;16.33;12.07;;;2.00;93.40;;;;;;5081384;28;20174;-38
2020/12/04 04:08:17;;;;;;;14.07;11.43;;;2.00;93.30;;;;;;5081718;28;20422;-37
2020/12/04 04:10:43;;;;;;;17.60;13.03;;;2.00;93.30;;;;;;5080367;28;20443;-37
2020/12/04 04:13:09;;;;;;;18.37;14.00;;;2.00;93.40;;;;;;5080160;28;20181;-37
2020/12/04 04:15:34;;;;;;;16.30;12.00;;;2.00;93.40;;;;;;5080622;28;20177;-38
2020/12/04 04:18:00;;;;;;;17.77;13.37;;;2.00;93.40;;;;;;5079971;28;20491;-37
2020/12/04 04:20:29;;;;;;;16.10;12.40;;;1.90;93.40;;;;;;5078905;28;20189;-39
2020/12/04 04:22:55;;;;;;;16.30;13.10;;;1.90;93.50;;;;;;5079725;28;20214;-38
2020/12/04 04:25:21;;;;;;;16.70;13.13;;;1.90;93.80;;;;;;5079016;28;20439;-38
2020/12/04 04:27:46;;;;;;;15.40;12.30;;;1.90;94.00;;;;;;5079842;28;20859;-38
2020/12/04 04:30:13;;;;;;;16.40;13.50;;;1.90;94.00;;;;;;5079816;28;20181;-38
2020/12/04 04:32:39;;;;;;;16.07;12.23;;;1.90;94.00;;;;;;5078461;28;20181;-39
2020/12/04 04:35:05;;;;;;;18.50;12.97;;;2.00;94.10;;;;;;5079294;28;20812;-39
2020/12/04 04:37:31;;;;;;;15.07;12.67;;;2.00;94.10;;;;;;5078180;28;20411;-38
2020/12/04 04:39:58;;;;;;;18.97;13.60;;;2.00;94.40;;;;;;5077907;28;20598;-38
2020/12/04 04:42:23;;;;;;;16.73;12.83;;;2.00;94.20;;;;;;5077458;28;20512;-38
2020/12/04 04:44:50;;;;;;;16.07;11.43;;;2.00;94.30;;;;;;5077711;28;20435;-37
2020/12/04 04:47:19;;;;;;;15.17;12.83;;;2.10;94.20;;;;;;5078891;28;20173;-39
2020/12/04 04:49:54;;;;;;;14.77;12.30;;;2.10;94.00;;;;;;5079360;28;20736;-38
2020/12/04 04:52:20;;;;;;;15.77;12.07;;;2.10;94.00;;;;;;5078345;28;20697;-37
2020/12/04 04:54:48;;;;;;;15.00;11.97;;;2.10;94.10;;;;;;5077860;28;20432;-38
2020/12/04 04:57:15;;;;;;;13.97;11.03;;;2.10;94.00;;;;;;5077450;28;20181;-37
2020/12/04 04:59:41;;;;;;;13.50;11.47;;;2.10;94.00;;;;;;5076319;28;20462;-38
2020/12/04 05:02:11;;;;;;;16.10;11.80;;;2.00;93.70;;;;;;5076922;28;20789;-36
2020/12/04 05:04:51;;;;;;;16.77;12.77;;;2.00;94.00;;;;;;5076949;28;20427;-37
2020/12/04 05:07:32;;;;;;;15.30;12.37;;;2.00;94.10;;;;;;5072099;28;20505;-38
2020/12/04 05:10:17;;;;;;;15.13;11.50;;;2.00;94.10;;;;;;5077603;28;20750;-37
2020/12/04 05:12:44;;;;;;;14.00;11.97;;;2.10;94.10;;;;;;5077666;28;20419;-38
2020/12/04 05:15:24;;;;;;;14.37;11.43;;;2.10;94.10;;;;;;5077837;28;20859;-39
2020/12/04 05:18:11;;;;;;;13.17;10.13;;;2.20;93.90;;;;;;5078761;28;20445;-38
2020/12/04 05:20:54;;;;;;;14.60;10.73;;;2.20;93.90;;;;;;5078245;28;20779;-37
2020/12/04 05:23:20;;;;;;;14.53;10.63;;;2.10;94.00;;;;;;5078132;28;20462;-38
2020/12/04 05:25:47;;;;;;;11.83;10.00;;;2.20;93.90;;;;;;5078064;28;20419;-38
2020/12/04 05:28:21;;;;;;;13.00;8.90;;;2.20;93.70;;;;;;5077291;28;20422;-38
2020/12/04 05:30:51;;;;;;;11.60;9.00;;;2.20;93.20;;;;;;5077189;28;20438;-38
2020/12/04 05:33:18;;;;;;;11.23;8.50;;;2.20;93.40;;;;;;5077340;28;20424;-39
2020/12/04 05:35:50;;;;;;;11.60;8.60;;;2.30;92.80;;;;;;5077980;28;20435;-38
2020/12/04 05:38:17;;;;;;;10.37;9.20;;;2.30;92.50;;;;;;5076925;28;20458;-37
2020/12/04 05:41:05;;;;;;;11.57;8.87;;;2.40;92.40;;;;;;5076368;28;20426;-40
2020/12/04 05:43:33;;;;;;;11.87;9.03;;;2.40;92.20;;;;;;5076599;28;20479;-37
2020/12/04 05:46:21;;;;;;;10.67;8.63;;;2.50;92.20;;;;;;5077167;28;20408;-38
2020/12/04 05:49:06;;;;;;;13.33;10.00;;;2.60;91.70;;;;;;5077678;28;20434;-38
2020/12/04 05:51:34;;;;;;;12.40;9.57;;;2.60;91.50;;;;;;5075899;28;20410;-38
2020/12/04 05:54:00;;;;;;;13.57;10.43;;;2.60;91.60;;;;;;5076069;28;20716;-37
2020/12/04 05:56:26;;;;;;;11.60;8.67;;;2.60;91.80;;;;;;5076463;28;20416;-37
2020/12/04 05:58:56;;;;;;;9.33;7.97;;;2.70;91.80;;;;;;5075061;28;20895;-39
2020/12/04 06:01:22;;;;;;;8.93;7.20;;;2.70;91.50;;;;;;5075933;28;20454;-37
2020/12/04 06:03:52;;;;;;;11.00;8.97;;;2.70;91.50;;;;;;5076677;28;20995;-38
2020/12/04 06:06:21;;;;;;;9.00;7.47;;;2.80;91.40;;;;;;5077232;28;20407;-37
2020/12/04 06:08:46;;;;;;;10.27;7.63;;;2.80;91.40;;;;;;5077339;28;20427;-37
2020/12/04 06:11:12;;;;;;;10.67;8.43;;;2.80;91.40;;;;;;5076176;28;20487;-37
2020/12/04 06:13:38;;;;;;;11.70;7.43;;;2.90;91.00;;;;;;5075385;28;20427;-38
2020/12/04 06:16:13;;;;;;;9.73;7.50;;;2.90;90.80;;;;;;5075305;28;20177;-41
2020/12/04 06:18:43;;;;;;;15.00;8.60;;;2.90;90.90;;;;;;5076510;28;20173;-35
2020/12/04 06:21:09;;;;;;;9.97;7.63;;;2.90;90.90;;;;;;5077218;28;20415;-39
2020/12/04 06:23:35;;;;;;;8.80;7.07;;;2.90;90.80;;;;;;5076508;28;20522;-37
2020/12/04 06:26:07;;;;;;;14.80;8.83;;;2.90;90.80;;;;;;5076065;28;20758;-38
2020/12/04 06:28:38;;;;;;;30.60;20.03;;;2.90;91.00;;;;;;5076246;28;20173;-38
2020/12/04 06:31:12;;;;;;;25.17;18.23;;;3.00;90.90;;;;;;5076570;28;20817;-37
2020/12/04 06:33:53;;;;;;;22.63;13.73;;;3.00;90.80;;;;;;5076293;28;20426;-38
2020/12/04 06:36:44;;;;;;;20.03;13.53;;;3.00;90.90;;;;;;5076449;28;20480;-38
2020/12/04 06:39:32;;;;;;;9.83;7.90;;;3.00;90.90;;;;;;5075302;28;20479;-38
2020/12/04 06:42:46;;;;;;;9.90;8.23;;;3.00;90.70;;;;;;5076132;28;20410;-37
2020/12/04 06:45:47;;;;;;;9.43;8.43;;;3.00;90.60;;;;;;5058418;28;20415;-37
2020/12/04 06:48:18;;;;;;;9.30;7.10;;;3.00;90.70;;;;;;5058893;28;20430;-37
2020/12/04 06:51:00;;;;;;;9.33;7.50;;;3.00;91.00;;;;;;5057987;28;20470;-37
2020/12/04 06:53:26;;;;;;;12.30;9.00;;;3.00;90.80;;;;;;5058178;28;20435;-37
2020/12/04 06:55:52;;;;;;;9.73;7.97;;;3.00;90.50;;;;;;5063332;28;20539;-37
2020/12/04 06:58:23;;;;;;;10.10;7.97;;;3.10;90.50;;;;;;5079910;28;20415;-37
2020/12/04 07:00:55;;;;;;;10.67;7.97;;;3.00;90.40;;;;;;5080366;28;20184;-37
2020/12/04 07:03:21;;;;;;;10.33;8.13;;;3.00;90.60;;;;;;5080533;28;20467;-38
2020/12/04 07:05:53;;;;;;;8.60;7.53;;;3.00;90.80;;;;;;5080562;28;20427;-38
2020/12/04 07:08:19;;;;;;;10.87;8.50;;;3.00;91.00;;;;;;5080808;28;20184;-38
2020/12/04 07:10:53;;;;;;;10.37;8.03;;;3.10;91.10;;;;;;5078976;28;20423;-39
2020/12/04 07:13:18;;;;;;;9.77;8.53;;;3.10;91.00;;;;;;5079087;28;20716;-38
2020/12/04 07:15:44;;;;;;;10.07;8.77;;;3.20;90.70;;;;;;5078588;28;20427;-38
2020/12/04 07:18:10;;;;;;;9.90;7.00;;;3.20;90.40;;;;;;5078290;28;20415;-36
2020/12/04 07:20:39;;;;;;;10.03;8.03;;;3.20;90.30;;;;;;5078059;28;20430;-38
2020/12/04 07:23:08;;;;;;;10.47;8.30;;;3.30;90.30;;;;;;5077965;28;20209;-38
2020/12/04 07:25:34;;;;;;;10.40;7.97;;;3.40;90.20;;;;;;5080164;28;20423;-39
2020/12/04 07:28:04;;;;;;;10.00;8.00;;;3.30;89.90;;;;;;5079833;28;20541;-38
2020/12/04 07:30:36;;;;;;;9.83;7.20;;;3.40;89.80;;;;;;5077393;28;20576;-38
2020/12/04 07:33:12;;;;;;;10.70;7.30;;;3.40;89.40;;;;;;5079260;28;20422;-38
2020/12/04 07:35:41;;;;;;;10.37;7.37;;;3.40;89.40;;;;;;5080113;28;20438;-39
2020/12/04 07:38:10;;;;;;;10.53;8.20;;;3.40;89.40;;;;;;5079859;28;20437;-39
2020/12/04 07:40:41;;;;;;;10.93;8.23;;;3.50;89.90;;;;;;5079804;28;20490;-38
2020/12/04 07:43:11;;;;;;;10.33;7.80;;;3.50;90.10;;;;;;5078537;28;20463;-38
2020/12/04 07:45:37;;;;;;;11.90;8.43;;;3.50;90.10;;;;;;5078080;28;20540;-38
2020/12/04 07:48:08;;;;;;;20.77;14.30;;;3.60;90.20;;;;;;5078568;28;20577;-37
2020/12/04 07:50:37;;;;;;;15.90;12.50;;;3.60;90.00;;;;;;5079228;28;20177;-38
2020/12/04 07:53:03;;;;;;;18.00;12.10;;;3.60;90.00;;;;;;5079575;28;20458;-38
2020/12/04 07:55:36;;;;;;;15.97;10.87;;;3.60;90.00;;;;;;5078411;28;20879;-39
2020/12/04 07:58:12;;;;;;;13.60;9.90;;;3.60;90.00;;;;;;5078556;28;20466;-40
2020/12/04 08:00:47;;;;;;;12.80;9.60;;;3.60;90.10;;;;;;5076576;28;20433;-39
2020/12/04 08:03:16;;;;;;;9.33;6.90;;;3.70;90.30;;;;;;5075463;28;20716;-39
2020/12/04 08:05:54;;;;;;;10.00;8.37;;;3.70;89.50;;;;;;5078724;28;20474;-38
2020/12/04 08:08:53;;;;;;;9.87;7.80;;;3.70;89.80;;;;;;5074155;28;20716;-37
2020/12/04 08:12:02;;;;;;;10.43;7.73;;;3.80;89.60;;;;;;5076996;28;20867;-39
2020/12/04 08:14:45;;;;;;;10.80;8.77;;;3.80;89.60;;;;;;5077384;28;20416;-38
2020/12/04 08:17:29;;;;;;;9.50;7.73;;;4.00;88.70;;;;;;5075193;28;20431;-38
2020/12/04 08:24:01;;;;;;;8.13;7.10;;;4.00;88.80;;;;;;5036065;28;20496;-39
2020/12/04 08:26:45;;;;;;;9.80;7.00;;;4.10;87.70;;;;;;5033549;28;20433;-39
2020/12/04 08:29:26;;;;;;;10.50;7.93;;;4.10;87.30;;;;;;5073149;28;20415;-39
2020/12/04 08:32:09;;;;;;;9.50;7.30;;;4.10;87.90;;;;;;5075981;28;20427;-38
2020/12/04 08:34:39;;;;;;;10.30;7.57;;;4.10;88.30;;;;;;5077383;28;20768;-39
2020/12/04 08:37:07;;;;;;;6.53;5.67;;;4.20;88.10;;;;;;5077093;28;20477;-39
2020/12/04 08:39:42;;;;;;;9.13;7.70;;;4.30;86.50;;;;;;5078299;28;20528;-39
2020/12/04 08:42:21;;;;;;;13.60;8.67;;;4.40;86.00;;;;;;5078255;28;20493;-39
2020/12/04 08:44:59;;;;;;;11.47;8.33;;;4.30;86.20;;;;;;5077355;28;20847;-38
2020/12/04 08:47:29;;;;;;;11.63;8.00;;;4.40;86.60;;;;;;5078156;28;20439;-38
2020/12/04 08:49:58;;;;;;;9.73;8.43;;;4.30;87.20;;;;;;5075907;28;20845;-38
2020/12/04 08:52:43;;;;;;;11.70;8.30;;;4.40;87.10;;;;;;5076118;28;20713;-38
2020/12/04 08:55:14;;;;;;;10.33;8.90;;;4.60;87.00;;;;;;5077046;28;20447;-39
2020/12/04 08:57:43;;;;;;;10.77;8.80;;;4.70;86.60;;;;;;5077538;28;20737;-38
2020/12/04 09:00:33;;;;;;;11.97;8.67;;;4.80;86.20;;;;;;5077340;28;20709;-38
2020/12/04 09:03:26;;;;;;;10.80;8.80;;;4.90;85.70;;;;;;5075878;28;20880;-39
2020/12/04 09:06:03;;;;;;;10.60;9.50;;;4.90;85.50;;;;;;5077442;28;20564;-39
2020/12/04 09:11:37;;;;;;;11.53;8.70;;;4.70;86.00;;;;;;5073013;28;20458;-38
2020/12/04 09:14:24;;;;;;;11.33;9.17;;;4.70;85.60;;;;;;5074753;28;20427;-39
2020/12/04 09:20:26;;;;;;;11.87;8.13;;;4.60;86.00;;;;;;5076295;28;20499;-36
2020/12/04 09:23:02;;;;;;;10.17;9.07;;;4.80;86.70;;;;;;5073061;28;20470;-39
2020/12/04 09:25:47;;;;;;;11.37;9.90;;;4.80;87.20;;;;;;5077163;28;20449;-39
2020/12/04 09:28:19;;;;;;;12.70;9.40;;;5.00;87.40;;;;;;5074649;28;20431;-38
2020/12/04 09:31:00;;;;;;;10.27;9.07;;;5.10;87.20;;;;;;5076195;28;20410;-38
2020/12/04 09:33:26;;;;;;;10.77;8.33;;;5.20;87.00;;;;;;5075590;28;20991;-39
2020/12/04 09:39:03;;;;;;;11.33;9.30;;;5.20;85.20;;;;;;5075214;28;20246;-40
2020/12/04 09:44:45;;;;;;;9.93;8.10;;;5.50;85.40;;;;;;5075169;28;20701;-38
2020/12/04 09:47:38;;;;;;;9.97;8.30;;;5.50;84.90;;;;;;5076812;28;20447;-37
2020/12/04 09:50:10;;;;;;;9.30;7.50;;;5.50;84.60;;;;;;5076313;28;20407;-39
2020/12/04 09:52:50;;;;;;;10.40;8.90;;;5.50;85.00;;;;;;5077757;28;20439;-38
2020/12/04 09:55:26;;;;;;;10.50;9.37;;;5.60;85.40;;;;;;5074733;28;20419;-38
2020/12/04 09:58:00;;;;;;;13.07;8.70;;;5.60;85.40;;;;;;5076796;28;20434;-39
2020/12/04 10:06:54;;;;;;;10.93;8.40;;;5.30;85.80;;;;;;5075515;28;20419;-40
2020/12/04 10:09:20;;;;;;;11.40;8.20;;;5.70;90.50;;;;;;5073435;28;20851;-40
2020/12/04 10:11:47;;;;;;;9.10;8.17;;;5.90;90.50;;;;;;5077584;28;20431;-41
2020/12/04 10:14:14;;;;;;;10.63;8.37;;;6.10;88.40;;;;;;5074834;28;20821;-40
2020/12/04 10:16:43;;;;;;;7.90;6.60;;;6.40;87.80;;;;;;5076557;28;20423;-40
2020/12/04 10:19:10;;;;;;;9.17;7.63;;;6.50;86.80;;;;;;5076046;28;20426;-40
2020/12/04 10:21:37;;;;;;;9.00;7.47;;;6.80;88.80;;;;;;5077900;28;20457;-38
2020/12/04 10:24:04;;;;;;;8.37;7.23;;;7.20;88.40;;;;;;5078819;28;20543;-40
2020/12/04 10:26:30;;;;;;;7.97;7.17;;;7.30;84.40;;;;;;5078060;28;20936;-38
2020/12/04 10:28:57;;;;;;;10.27;8.00;;;7.20;81.50;;;;;;5076882;28;20415;-38
2020/12/04 10:31:23;;;;;;;8.20;7.27;;;7.10;81.20;;;;;;5077915;28;20424;-40
2020/12/04 10:33:49;;;;;;;9.80;7.50;;;6.90;80.90;;;;;;5078723;28;20424;-39
2020/12/04 10:36:15;;;;;;;7.87;6.87;;;6.80;81.20;;;;;;5077498;28;20440;-37
2020/12/04 10:38:41;;;;;;;10.00;7.73;;;6.60;80.40;;;;;;5077295;28;20173;-38
2020/12/04 10:41:08;;;;;;;8.63;7.70;;;6.00;80.30;;;;;;5076463;28;20555;-38
2020/12/04 10:43:34;;;;;;;9.67;8.40;;;5.80;82.20;;;;;;5078224;28;20463;-38
2020/12/04 10:45:59;;;;;;;12.30;10.07;;;5.70;84.00;;;;;;5053076;28;20412;-39
2020/12/04 10:48:25;;;;;;;10.20;8.67;;;5.70;83.40;;;;;;5080948;28;20514;-39
2020/12/04 10:50:51;;;;;;;9.60;8.60;;;5.70;83.10;;;;;;5084101;28;20254;-38
2020/12/04 10:53:18;;;;;;;7.83;6.93;;;5.70;83.60;;;;;;5078824;28;20183;-38
2020/12/04 10:55:44;;;;;;;13.70;8.53;;;5.70;84.00;;;;;;5078197;28;20415;-38
2020/12/04 10:58:11;;;;;;;11.83;7.97;;;5.40;83.70;;;;;;5079308;28;20446;-38
2020/12/04 11:00:37;;;;;;;11.10;9.20;;;5.40;84.50;;;;;;5078406;28;20438;-39
2020/12/04 11:07:58;;;;;;;10.73;8.27;;;5.60;83.80;;;;;;5076967;28;20701;-39
2020/12/04 11:10:24;;;;;;;9.90;8.40;;;5.60;84.30;;;;;;5077710;28;20434;-39
2020/12/04 11:12:50;;;;;;;9.80;8.80;;;5.70;84.80;;;;;;5077530;28;20710;-38
2020/12/04 11:15:16;;;;;;;10.63;8.20;;;5.60;85.60;;;;;;5075871;28;20439;-39
2020/12/04 11:17:42;;;;;;;9.90;7.87;;;5.60;86.10;;;;;;5076994;28;20239;-39
2020/12/04 11:20:08;;;;;;;11.03;9.37;;;5.40;85.30;;;;;;5076247;28;20465;-36
2020/12/04 11:22:35;;;;;;;12.17;8.87;;;5.20;86.30;;;;;;5075876;28;20197;-38
2020/12/04 11:25:02;;;;;;;12.90;9.33;;;5.40;86.50;;;;;;5075472;28;20848;-38
2020/12/04 11:27:28;;;;;;;14.33;9.67;;;5.50;85.90;;;;;;5076036;28;20419;-37
2020/12/04 11:29:53;;;;;;;11.57;8.83;;;5.50;85.60;;;;;;5078070;28;20435;-38
2020/12/04 11:32:19;;;;;;;10.90;8.70;;;5.60;85.40;;;;;;5078940;28;20189;-37
2020/12/04 11:34:45;;;;;;;11.10;8.40;;;5.50;85.30;;;;;;5079108;28;20619;-39
2020/12/04 11:37:11;;;;;;;11.53;9.27;;;5.60;85.10;;;;;;5078575;28;20713;-37
2020/12/04 11:39:40;;;;;;;13.73;9.07;;;5.70;85.70;;;;;;5079359;28;20248;-37
2020/12/04 11:42:09;;;;;;;12.90;8.83;;;5.70;84.90;;;;;;5079186;28;20423;-38
2020/12/04 11:44:35;;;;;;;10.13;8.70;;;5.70;84.60;;;;;;5078391;28;20420;-37
2020/12/04 11:47:01;;;;;;;11.53;9.10;;;5.70;85.00;;;;;;5078890;28;20485;-38
2020/12/04 11:49:26;;;;;;;11.33;9.80;;;5.70;85.10;;;;;;5060813;28;20558;-38
2020/12/04 11:51:52;;;;;;;15.30;10.83;;;5.80;85.30;;;;;;5077048;28;20177;-39
2020/12/04 11:54:18;;;;;;;15.27;10.40;;;5.80;85.50;;;;;;5077904;28;20488;-39
2020/12/04 11:56:53;;;;;;;11.53;9.60;;;5.70;85.40;;;;;;5078150;28;20204;-39
2020/12/04 11:59:18;;;;;;;12.10;9.00;;;5.80;85.80;;;;;;5077964;28;20550;-38
2020/12/04 12:01:45;;;;;;;14.03;11.40;;;5.80;86.00;;;;;;5078027;28;20517;-40
2020/12/04 12:04:15;;;;;;;13.43;10.87;;;5.90;86.40;;;;;;5077521;28;20565;-41
2020/12/04 12:06:41;;;;;;;12.10;10.20;;;5.90;85.90;;;;;;5078450;28;20419;-40
2020/12/04 12:09:08;;;;;;;11.27;10.03;;;5.90;85.70;;;;;;5076328;28;20422;-39
2020/12/04 12:11:34;;;;;;;10.70;9.60;;;5.90;85.70;;;;;;5077991;28;20423;-40
2020/12/04 12:14:00;;;;;;;13.13;10.70;;;5.90;86.30;;;;;;5078032;28;20848;-39
2020/12/04 12:16:26;;;;;;;13.20;10.27;;;5.90;87.00;;;;;;5077900;28;20451;-40
2020/12/04 12:18:51;;;;;;;12.60;10.97;;;5.90;86.90;;;;;;5075165;28;20488;-40
2020/12/04 12:21:18;;;;;;;14.03;11.77;;;5.90;86.90;;;;;;5073982;28;20931;-40
2020/12/04 12:23:44;;;;;;;22.30;14.20;;;6.00;87.30;;;;;;5074203;28;20459;-39
2020/12/04 12:26:11;;;;;;;15.80;12.80;;;5.90;86.40;;;;;;5074036;28;20426;-39
2020/12/04 12:28:38;;;;;;;17.93;13.17;;;6.00;87.00;;;;;;5074340;28;20344;-40
2020/12/04 12:31:04;;;;;;;19.10;13.10;;;6.00;87.10;;;;;;5076623;28;20433;-40
2020/12/04 12:33:30;;;;;;;14.63;13.07;;;6.10;87.10;;;;;;5074740;28;20432;-39
2020/12/04 12:35:56;;;;;;;15.57;13.40;;;6.10;87.10;;;;;;5078885;28;20270;-38
2020/12/04 12:38:22;;;;;;;18.77;13.47;;;6.20;87.00;;;;;;5060742;28;20428;-38
2020/12/04 12:40:48;;;;;;;18.07;13.10;;;6.20;87.00;;;;;;5076095;28;20495;-38
2020/12/04 12:43:13;;;;;;;19.10;12.73;;;6.30;87.10;;;;;;5078345;28;20473;-40
2020/12/04 12:45:39;;;;;;;21.13;14.20;;;6.30;86.80;;;;;;5078748;28;20174;-40
2020/12/04 12:48:06;;;;;;;18.33;14.73;;;6.40;86.50;;;;;;5078777;28;20170;-38
2020/12/04 12:50:33;;;;;;;21.17;13.97;;;6.30;86.10;;;;;;5080214;28;20166;-40
2020/12/04 12:52:58;;;;;;;15.70;12.83;;;6.30;85.90;;;;;;5079234;28;20399;-39
2020/12/04 12:55:24;;;;;;;20.27;14.10;;;6.30;85.70;;;;;;5078391;28;20431;-40
2020/12/04 12:57:50;;;;;;;15.47;13.20;;;6.30;85.90;;;;;;5077212;28;20238;-41
2020/12/04 13:00:16;;;;;;;19.50;14.17;;;6.30;86.40;;;;;;5077593;28;20272;-38
2020/12/04 13:02:41;;;;;;;21.23;13.07;;;6.30;85.80;;;;;;5077783;28;20636;-38
2020/12/04 13:07:51;;;;;;;18.20;12.30;;;6.10;86.20;;;;;;5077290;28;20225;-39
2020/12/04 13:10:17;;;;;;;15.50;11.90;;;6.00;86.10;;;;;;5078508;28;20518;-38
2020/12/04 13:12:45;;;;;;;21.70;11.80;;;5.90;86.70;;;;;;5076904;28;20430;-39
2020/12/04 13:15:10;;;;;;;13.97;11.73;;;5.70;87.40;;;;;;5060461;28;20553;-39
2020/12/04 13:17:36;;;;;;;16.13;10.90;;;5.70;87.80;;;;;;5076462;28;20415;-39
2020/12/04 13:20:03;;;;;;;14.60;11.70;;;5.80;88.00;;;;;;5075568;28;20195;-40
2020/12/04 13:22:29;;;;;;;16.97;12.40;;;5.80;87.80;;;;;;5076179;28;20489;-39
2020/12/04 13:24:54;;;;;;;19.70;10.60;;;5.80;87.50;;;;;;5076891;28;20506;-38